sensor_id;sensor_type;location;lat;lon;timestamp;temperature;humidity
12811;DHT22;6470;47.654;7.896;2022-10-26T00:02:24;15.00;99.90
12811;DHT22;6470;47.654;7.896;2022-10-26T00:04:50;10.00;99.90
12811;DHT22;6470;47.654;7.896;2022-10-26T00:07:16;15.30;99.90
12811;DHT22;6470;47.654;7.896;2022-10-26T00:09:41;15.10;99.90
12811;DHT22;6470;47.654;7.896;2022-10-26T00:12:07;10.20;99.90
12811;DHT22;6470;47.654;7.896;2022-10-26T00:14:33;15.30;99.90
12811;DHT22;6470;47.654;7.896;2022-10-26T00:16:59;15.70;99.90
12811;DHT22;6470;47.654;7.896;2022-10-26T00:19:24;15.60;99.90
12811;DHT22;6470;47.654;7.896;2022-10-26T00:21:51;10.40;99.90
12811;DHT22;6470;47.654;7.896;2022-10-26T00:24:16;15.90;99.90
12811;DHT22;6470;47.654;7.896;2022-10-26T00:29:10;10.20;99.90
12811;DHT22;6470;47.654;7.896;2022-10-26T00:31:36;14.70;99.90
12811;DHT22;6470;47.654;7.896;2022-10-26T00:34:02;14.40;99.90
12811;DHT22;6470;47.654;7.896;2022-10-26T00:36:28;14.90;99.90
12811;DHT22;6470;47.654;7.896;2022-10-26T00:38:55;12.10;99.90
12811;DHT22;6470;47.654;7.896;2022-10-26T00:41:28;11.70;99.90
12811;DHT22;6470;47.654;7.896;2022-10-26T00:43:55;9.90;99.90
12811;DHT22;6470;47.654;7.896;2022-10-26T00:46:23;15.20;99.90
12811;DHT22;6470;47.654;7.896;2022-10-26T00:48:54;14.70;99.90
12811;DHT22;6470;47.654;7.896;2022-10-26T00:51:33;15.50;99.90
12811;DHT22;6470;47.654;7.896;2022-10-26T00:54:07;15.20;99.90
12811;DHT22;6470;47.654;7.896;2022-10-26T00:56:34;14.60;99.90
12811;DHT22;6470;47.654;7.896;2022-10-26T00:59:04;12.20;99.90
12811;DHT22;6470;47.654;7.896;2022-10-26T01:01:33;10.10;99.90
12811;DHT22;6470;47.654;7.896;2022-10-26T01:06:30;11.70;99.90
12811;DHT22;6470;47.654;7.896;2022-10-26T01:11:22;15.30;99.90
12811;DHT22;6470;47.654;7.896;2022-10-26T01:13:50;12.00;99.90
12811;DHT22;6470;47.654;7.896;2022-10-26T01:21:59;10.00;99.90
12811;DHT22;6470;47.654;7.896;2022-10-26T01:25:00;10.00;99.90
12811;DHT22;6470;47.654;7.896;2022-10-26T01:27:34;10.20;99.90
12811;DHT22;6470;47.654;7.896;2022-10-26T01:33:19;12.10;99.90
12811;DHT22;6470;47.654;7.896;2022-10-26T01:36:10;12.20;99.90
12811;DHT22;6470;47.654;7.896;2022-10-26T01:41:24;10.10;99.90
12811;DHT22;6470;47.654;7.896;2022-10-26T01:43:58;15.30;99.90
12811;DHT22;6470;47.654;7.896;2022-10-26T01:46:28;14.80;99.90
12811;DHT22;6470;47.654;7.896;2022-10-26T01:48:58;15.50;99.90
12811;DHT22;6470;47.654;7.896;2022-10-26T01:51:26;15.10;99.90
12811;DHT22;6470;47.654;7.896;2022-10-26T01:53:53;15.50;99.90
12811;DHT22;6470;47.654;7.896;2022-10-26T01:56:22;12.60;99.90
12811;DHT22;6470;47.654;7.896;2022-10-26T02:10:10;15.80;99.90
12811;DHT22;6470;47.654;7.896;2022-10-26T02:13:13;15.30;99.90
12811;DHT22;6470;47.654;7.896;2022-10-26T02:15:56;15.20;99.90
12811;DHT22;6470;47.654;7.896;2022-10-26T02:21:44;15.40;99.90
12811;DHT22;6470;47.654;7.896;2022-10-26T02:24:14;16.10;99.90
12811;DHT22;6470;47.654;7.896;2022-10-26T02:26:44;15.20;99.90
12811;DHT22;6470;47.654;7.896;2022-10-26T02:29:15;12.90;99.90
12811;DHT22;6470;47.654;7.896;2022-10-26T02:31:43;15.90;99.90
12811;DHT22;6470;47.654;7.896;2022-10-26T02:34:12;15.30;99.90
12811;DHT22;6470;47.654;7.896;2022-10-26T02:36:41;10.30;99.90
12811;DHT22;6470;47.654;7.896;2022-10-26T02:39:09;15.50;99.90
12811;DHT22;6470;47.654;7.896;2022-10-26T02:41:36;15.90;99.90
12811;DHT22;6470;47.654;7.896;2022-10-26T02:44:09;15.80;99.90
12811;DHT22;6470;47.654;7.896;2022-10-26T02:46:37;15.90;99.90
12811;DHT22;6470;47.654;7.896;2022-10-26T02:51:46;15.40;99.90
12811;DHT22;6470;47.654;7.896;2022-10-26T02:54:23;15.70;99.90
12811;DHT22;6470;47.654;7.896;2022-10-26T02:57:04;14.90;99.90
12811;DHT22;6470;47.654;7.896;2022-10-26T02:59:34;15.70;99.90
12811;DHT22;6470;47.654;7.896;2022-10-26T03:02:01;14.90;99.90
12811;DHT22;6470;47.654;7.896;2022-10-26T03:04:31;10.10;99.90
12811;DHT22;6470;47.654;7.896;2022-10-26T03:06:57;10.30;99.90
12811;DHT22;6470;47.654;7.896;2022-10-26T03:09:23;15.30;99.90
12811;DHT22;6470;47.654;7.896;2022-10-26T03:11:49;10.40;99.90
12811;DHT22;6470;47.654;7.896;2022-10-26T03:14:14;15.00;99.90
12811;DHT22;6470;47.654;7.896;2022-10-26T03:19:06;15.60;99.90
12811;DHT22;6470;47.654;7.896;2022-10-26T03:21:32;15.80;99.90
12811;DHT22;6470;47.654;7.896;2022-10-26T03:23:57;15.60;99.90
12811;DHT22;6470;47.654;7.896;2022-10-26T03:26:23;15.60;99.90
12811;DHT22;6470;47.654;7.896;2022-10-26T03:28:49;15.50;99.90
12811;DHT22;6470;47.654;7.896;2022-10-26T03:31:14;15.90;99.90
12811;DHT22;6470;47.654;7.896;2022-10-26T03:33:40;15.20;99.90
12811;DHT22;6470;47.654;7.896;2022-10-26T03:36:06;15.10;99.90
12811;DHT22;6470;47.654;7.896;2022-10-26T03:38:32;15.20;99.90
12811;DHT22;6470;47.654;7.896;2022-10-26T03:40:58;12.50;99.90
12811;DHT22;6470;47.654;7.896;2022-10-26T03:43:24;15.80;99.90
12811;DHT22;6470;47.654;7.896;2022-10-26T03:45:49;15.00;99.90
12811;DHT22;6470;47.654;7.896;2022-10-26T03:48:15;15.30;99.90
12811;DHT22;6470;47.654;7.896;2022-10-26T03:50:41;15.40;99.90
12811;DHT22;6470;47.654;7.896;2022-10-26T03:53:07;10.70;99.90
12811;DHT22;6470;47.654;7.896;2022-10-26T03:55:32;15.40;99.90
12811;DHT22;6470;47.654;7.896;2022-10-26T03:57:58;15.10;99.90
12811;DHT22;6470;47.654;7.896;2022-10-26T04:00:24;14.50;99.90
12811;DHT22;6470;47.654;7.896;2022-10-26T04:02:57;14.70;99.90
12811;DHT22;6470;47.654;7.896;2022-10-26T04:05:24;14.80;99.90
12811;DHT22;6470;47.654;7.896;2022-10-26T04:07:55;15.10;99.90
12811;DHT22;6470;47.654;7.896;2022-10-26T04:10:22;15.60;99.90
12811;DHT22;6470;47.654;7.896;2022-10-26T04:12:48;15.30;99.90
12811;DHT22;6470;47.654;7.896;2022-10-26T04:15:14;14.90;99.90
12811;DHT22;6470;47.654;7.896;2022-10-26T04:17:40;14.70;99.90
12811;DHT22;6470;47.654;7.896;2022-10-26T04:20:07;15.70;99.90
12811;DHT22;6470;47.654;7.896;2022-10-26T04:22:32;15.50;99.90
12811;DHT22;6470;47.654;7.896;2022-10-26T04:24:58;15.50;99.90
12811;DHT22;6470;47.654;7.896;2022-10-26T04:27:24;14.80;99.90
12811;DHT22;6470;47.654;7.896;2022-10-26T04:29:50;10.30;99.90
12811;DHT22;6470;47.654;7.896;2022-10-26T04:32:15;12.40;99.90
12811;DHT22;6470;47.654;7.896;2022-10-26T04:34:41;14.80;99.90
12811;DHT22;6470;47.654;7.896;2022-10-26T04:37:07;14.70;99.90
12811;DHT22;6470;47.654;7.896;2022-10-26T04:39:32;15.00;99.90
12811;DHT22;6470;47.654;7.896;2022-10-26T04:41:58;15.00;99.90
12811;DHT22;6470;47.654;7.896;2022-10-26T04:44:24;15.30;99.90
12811;DHT22;6470;47.654;7.896;2022-10-26T04:46:49;15.80;99.90
12811;DHT22;6470;47.654;7.896;2022-10-26T04:49:15;10.40;99.90
12811;DHT22;6470;47.654;7.896;2022-10-26T04:51:41;15.70;99.90
12811;DHT22;6470;47.654;7.896;2022-10-26T04:54:06;16.00;99.90
12811;DHT22;6470;47.654;7.896;2022-10-26T04:56:32;15.50;99.90
12811;DHT22;6470;47.654;7.896;2022-10-26T04:58:58;15.70;99.90
12811;DHT22;6470;47.654;7.896;2022-10-26T05:01:25;15.20;99.90
12811;DHT22;6470;47.654;7.896;2022-10-26T05:06:19;13.20;99.90
12811;DHT22;6470;47.654;7.896;2022-10-26T05:08:44;15.20;99.90
12811;DHT22;6470;47.654;7.896;2022-10-26T05:11:10;15.50;99.90
12811;DHT22;6470;47.654;7.896;2022-10-26T05:13:36;14.90;99.90
12811;DHT22;6470;47.654;7.896;2022-10-26T05:20:54;15.70;99.90
12811;DHT22;6470;47.654;7.896;2022-10-26T05:23:20;10.50;99.90
12811;DHT22;6470;47.654;7.896;2022-10-26T05:25:47;15.10;99.90
12811;DHT22;6470;47.654;7.896;2022-10-26T05:28:13;15.70;99.90
12811;DHT22;6470;47.654;7.896;2022-10-26T05:30:43;10.40;99.90
12811;DHT22;6470;47.654;7.896;2022-10-26T05:33:10;16.00;99.90
12811;DHT22;6470;47.654;7.896;2022-10-26T05:35:36;15.50;99.90
12811;DHT22;6470;47.654;7.896;2022-10-26T05:38:13;15.70;99.90
12811;DHT22;6470;47.654;7.896;2022-10-26T05:40:47;16.00;99.90
12811;DHT22;6470;47.654;7.896;2022-10-26T05:45:39;16.00;99.90
12811;DHT22;6470;47.654;7.896;2022-10-26T05:48:05;15.90;99.90
12811;DHT22;6470;47.654;7.896;2022-10-26T05:50:30;15.40;99.90
12811;DHT22;6470;47.654;7.896;2022-10-26T05:52:56;13.30;99.90
12811;DHT22;6470;47.654;7.896;2022-10-26T05:55:22;15.20;99.90
12811;DHT22;6470;47.654;7.896;2022-10-26T05:57:48;14.90;99.90
12811;DHT22;6470;47.654;7.896;2022-10-26T06:00:20;15.10;99.90
12811;DHT22;6470;47.654;7.896;2022-10-26T06:08:17;15.50;99.90
12811;DHT22;6470;47.654;7.896;2022-10-26T06:10:43;15.00;99.90
12811;DHT22;6470;47.654;7.896;2022-10-26T06:13:09;14.70;99.90
12811;DHT22;6470;47.654;7.896;2022-10-26T06:16:26;15.60;99.90
12811;DHT22;6470;47.654;7.896;2022-10-26T06:18:53;10.40;99.90
12811;DHT22;6470;47.654;7.896;2022-10-26T06:24:51;15.40;99.90
12811;DHT22;6470;47.654;7.896;2022-10-26T06:30:05;15.20;99.90
12811;DHT22;6470;47.654;7.896;2022-10-26T06:32:43;15.70;99.90
12811;DHT22;6470;47.654;7.896;2022-10-26T06:35:33;15.40;99.90
12811;DHT22;6470;47.654;7.896;2022-10-26T06:38:06;12.90;99.90
12811;DHT22;6470;47.654;7.896;2022-10-26T06:40:35;13.00;99.90
12811;DHT22;6470;47.654;7.896;2022-10-26T06:43:02;15.00;99.90
12811;DHT22;6470;47.654;7.896;2022-10-26T06:45:28;15.40;99.90
12811;DHT22;6470;47.654;7.896;2022-10-26T06:48:12;15.70;99.90
12811;DHT22;6470;47.654;7.896;2022-10-26T06:50:51;14.90;99.90
12811;DHT22;6470;47.654;7.896;2022-10-26T06:55:46;14.70;99.90
12811;DHT22;6470;47.654;7.896;2022-10-26T06:58:18;15.60;99.90
12811;DHT22;6470;47.654;7.896;2022-10-26T07:00:50;15.20;99.90
12811;DHT22;6470;47.654;7.896;2022-10-26T07:03:16;13.10;99.90
12811;DHT22;6470;47.654;7.896;2022-10-26T07:05:43;15.60;99.90
12811;DHT22;6470;47.654;7.896;2022-10-26T07:08:09;13.40;99.90
12811;DHT22;6470;47.654;7.896;2022-10-26T07:13:04;15.60;99.90
12811;DHT22;6470;47.654;7.896;2022-10-26T07:15:31;15.20;99.90
12811;DHT22;6470;47.654;7.896;2022-10-26T07:17:56;15.50;99.90
12811;DHT22;6470;47.654;7.896;2022-10-26T07:22:52;15.30;99.90
12811;DHT22;6470;47.654;7.896;2022-10-26T07:25:18;15.10;99.90
12811;DHT22;6470;47.654;7.896;2022-10-26T07:27:44;15.50;99.90
12811;DHT22;6470;47.654;7.896;2022-10-26T07:37:28;15.00;99.90
12811;DHT22;6470;47.654;7.896;2022-10-26T07:39:54;15.10;99.90
12811;DHT22;6470;47.654;7.896;2022-10-26T07:42:20;15.70;99.90
12811;DHT22;6470;47.654;7.896;2022-10-26T07:44:46;14.30;99.90
12811;DHT22;6470;47.654;7.896;2022-10-26T07:47:12;15.10;99.90
12811;DHT22;6470;47.654;7.896;2022-10-26T07:49:38;15.30;99.90
12811;DHT22;6470;47.654;7.896;2022-10-26T07:52:03;14.90;99.90
12811;DHT22;6470;47.654;7.896;2022-10-26T07:54:30;15.10;99.90
12811;DHT22;6470;47.654;7.896;2022-10-26T07:59:22;15.20;99.90
12811;DHT22;6470;47.654;7.896;2022-10-26T08:04:14;16.20;99.90
12811;DHT22;6470;47.654;7.896;2022-10-26T08:06:40;15.90;99.90
12811;DHT22;6470;47.654;7.896;2022-10-26T08:09:06;15.90;99.90
12811;DHT22;6470;47.654;7.896;2022-10-26T08:11:31;15.40;99.90
12811;DHT22;6470;47.654;7.896;2022-10-26T08:13:57;16.10;99.90
12811;DHT22;6470;47.654;7.896;2022-10-26T08:16:23;15.80;99.90
12811;DHT22;6470;47.654;7.896;2022-10-26T08:18:50;16.10;99.90
12811;DHT22;6470;47.654;7.896;2022-10-26T08:21:17;15.80;99.90
12811;DHT22;6470;47.654;7.896;2022-10-26T08:23:42;16.20;99.90
12811;DHT22;6470;47.654;7.896;2022-10-26T08:26:09;16.00;99.90
12811;DHT22;6470;47.654;7.896;2022-10-26T08:28:38;16.10;99.90
12811;DHT22;6470;47.654;7.896;2022-10-26T08:31:04;17.00;99.90
12811;DHT22;6470;47.654;7.896;2022-10-26T08:36:04;17.10;99.90
12811;DHT22;6470;47.654;7.896;2022-10-26T08:38:30;16.80;99.90
12811;DHT22;6470;47.654;7.896;2022-10-26T08:40:58;14.60;99.90
12811;DHT22;6470;47.654;7.896;2022-10-26T08:46:15;17.90;99.90
12811;DHT22;6470;47.654;7.896;2022-10-26T08:48:46;18.40;99.90
12811;DHT22;6470;47.654;7.896;2022-10-26T08:51:17;17.90;99.90
12811;DHT22;6470;47.654;7.896;2022-10-26T08:53:58;17.90;99.90
12811;DHT22;6470;47.654;7.896;2022-10-26T08:56:50;18.20;99.90
12811;DHT22;6470;47.654;7.896;2022-10-26T09:01:58;18.20;99.90
12811;DHT22;6470;47.654;7.896;2022-10-26T09:04:28;19.50;99.90
12811;DHT22;6470;47.654;7.896;2022-10-26T09:09:59;19.00;99.90
12811;DHT22;6470;47.654;7.896;2022-10-26T09:18:15;20.10;99.90
12811;DHT22;6470;47.654;7.896;2022-10-26T09:21:07;19.70;99.90
12811;DHT22;6470;47.654;7.896;2022-10-26T09:28:56;19.80;99.90
12811;DHT22;6470;47.654;7.896;2022-10-26T09:31:24;19.70;99.90
12811;DHT22;6470;47.654;7.896;2022-10-26T09:33:50;19.90;99.90
12811;DHT22;6470;47.654;7.896;2022-10-26T09:36:20;20.00;99.90
12811;DHT22;6470;47.654;7.896;2022-10-26T09:41:25;20.00;99.90
12811;DHT22;6470;47.654;7.896;2022-10-26T09:43:53;20.50;99.90
12811;DHT22;6470;47.654;7.896;2022-10-26T09:49:11;20.70;99.90
12811;DHT22;6470;47.654;7.896;2022-10-26T09:51:39;20.30;99.90
12811;DHT22;6470;47.654;7.896;2022-10-26T09:54:15;20.50;99.90
12811;DHT22;6470;47.654;7.896;2022-10-26T09:56:44;20.40;99.90
12811;DHT22;6470;47.654;7.896;2022-10-26T09:59:12;20.60;99.90
12811;DHT22;6470;47.654;7.896;2022-10-26T10:01:40;21.00;99.90
12811;DHT22;6470;47.654;7.896;2022-10-26T10:09:28;21.00;99.90
12811;DHT22;6470;47.654;7.896;2022-10-26T10:12:00;18.50;99.90
12811;DHT22;6470;47.654;7.896;2022-10-26T10:14:31;18.10;99.90
12811;DHT22;6470;47.654;7.896;2022-10-26T10:17:03;18.20;99.90
12811;DHT22;6470;47.654;7.896;2022-10-26T10:19:37;21.20;99.90
12811;DHT22;6470;47.654;7.896;2022-10-26T10:24:41;20.90;99.90
12811;DHT22;6470;47.654;7.896;2022-10-26T10:32:17;21.30;99.90
12811;DHT22;6470;47.654;7.896;2022-10-26T10:34:48;21.90;99.90
12811;DHT22;6470;47.654;7.896;2022-10-26T10:37:27;21.50;99.90
12811;DHT22;6470;47.654;7.896;2022-10-26T10:40:00;21.80;99.90
12811;DHT22;6470;47.654;7.896;2022-10-26T10:42:34;21.50;99.90
12811;DHT22;6470;47.654;7.896;2022-10-26T10:45:01;22.30;99.90
12811;DHT22;6470;47.654;7.896;2022-10-26T10:47:31;21.40;99.90
12811;DHT22;6470;47.654;7.896;2022-10-26T10:52:29;22.40;99.90
12811;DHT22;6470;47.654;7.896;2022-10-26T11:00:09;22.10;99.90
12811;DHT22;6470;47.654;7.896;2022-10-26T11:03:28;21.80;99.90
12811;DHT22;6470;47.654;7.896;2022-10-26T11:09:04;22.40;99.90
12811;DHT22;6470;47.654;7.896;2022-10-26T11:14:26;23.30;99.90
12811;DHT22;6470;47.654;7.896;2022-10-26T11:17:41;22.00;99.90
12811;DHT22;6470;47.654;7.896;2022-10-26T11:20:01;21.90;99.90
12811;DHT22;6470;47.654;7.896;2022-10-26T11:22:34;22.70;99.90
12811;DHT22;6470;47.654;7.896;2022-10-26T11:25:11;22.50;99.90
12811;DHT22;6470;47.654;7.896;2022-10-26T11:27:52;22.20;99.90
12811;DHT22;6470;47.654;7.896;2022-10-26T11:30:21;22.10;99.90
12811;DHT22;6470;47.654;7.896;2022-10-26T11:33:33;22.90;99.90
12811;DHT22;6470;47.654;7.896;2022-10-26T11:35:57;23.60;99.90
12811;DHT22;6470;47.654;7.896;2022-10-26T11:38:41;20.10;99.90
12811;DHT22;6470;47.654;7.896;2022-10-26T11:41:14;22.20;99.90
12811;DHT22;6470;47.654;7.896;2022-10-26T11:44:14;23.10;99.90
12811;DHT22;6470;47.654;7.896;2022-10-26T11:46:46;22.10;99.90
12811;DHT22;6470;47.654;7.896;2022-10-26T11:49:42;22.60;99.90
12811;DHT22;6470;47.654;7.896;2022-10-26T11:52:23;22.70;99.90
12811;DHT22;6470;47.654;7.896;2022-10-26T11:55:01;22.60;99.90
12811;DHT22;6470;47.654;7.896;2022-10-26T11:57:31;22.50;99.90
12811;DHT22;6470;47.654;7.896;2022-10-26T12:00:04;22.70;99.90
12811;DHT22;6470;47.654;7.896;2022-10-26T12:02:36;22.60;99.90
12811;DHT22;6470;47.654;7.896;2022-10-26T12:05:05;23.60;99.90
12811;DHT22;6470;47.654;7.896;2022-10-26T12:07:35;22.50;99.90
12811;DHT22;6470;47.654;7.896;2022-10-26T12:10:06;23.00;99.90
12811;DHT22;6470;47.654;7.896;2022-10-26T12:13:08;20.40;99.90
12811;DHT22;6470;47.654;7.896;2022-10-26T12:18:25;20.40;99.90
12811;DHT22;6470;47.654;7.896;2022-10-26T12:21:03;23.60;99.90
12811;DHT22;6470;47.654;7.896;2022-10-26T12:33:57;23.80;99.90
12811;DHT22;6470;47.654;7.896;2022-10-26T12:39:36;23.30;99.90
12811;DHT22;6470;47.654;7.896;2022-10-26T12:47:09;23.10;99.90
12811;DHT22;6470;47.654;7.896;2022-10-26T12:52:45;22.40;99.90
12811;DHT22;6470;47.654;7.896;2022-10-26T13:08:50;23.50;99.90
12811;DHT22;6470;47.654;7.896;2022-10-26T13:13:43;23.50;99.90
12811;DHT22;6470;47.654;7.896;2022-10-26T13:16:11;23.10;99.90
12811;DHT22;6470;47.654;7.896;2022-10-26T13:18:42;23.20;99.90
12811;DHT22;6470;47.654;7.896;2022-10-26T13:21:11;23.50;99.90
12811;DHT22;6470;47.654;7.896;2022-10-26T13:26:28;23.20;99.90
12811;DHT22;6470;47.654;7.896;2022-10-26T13:28:56;24.10;99.90
12811;DHT22;6470;47.654;7.896;2022-10-26T13:34:15;20.70;99.90
12811;DHT22;6470;47.654;7.896;2022-10-26T13:42:04;23.80;99.90
12811;DHT22;6470;47.654;7.896;2022-10-26T13:50:04;23.40;99.90
12811;DHT22;6470;47.654;7.896;2022-10-26T13:52:36;24.00;99.90
12811;DHT22;6470;47.654;7.896;2022-10-26T13:58:22;23.50;99.90
12811;DHT22;6470;47.654;7.896;2022-10-26T14:03:35;22.90;99.90
12811;DHT22;6470;47.654;7.896;2022-10-26T14:06:07;22.80;99.90
12811;DHT22;6470;47.654;7.896;2022-10-26T14:08:35;23.20;99.90
12811;DHT22;6470;47.654;7.896;2022-10-26T14:11:02;20.50;99.90
12811;DHT22;6470;47.654;7.896;2022-10-26T14:13:27;23.70;99.90
12811;DHT22;6470;47.654;7.896;2022-10-26T14:15:57;22.90;99.90
12811;DHT22;6470;47.654;7.896;2022-10-26T14:18:28;23.60;99.90
12811;DHT22;6470;47.654;7.896;2022-10-26T14:20:57;23.60;99.90
12811;DHT22;6470;47.654;7.896;2022-10-26T14:23:34;20.30;99.90
12811;DHT22;6470;47.654;7.896;2022-10-26T14:26:00;23.20;99.90
12811;DHT22;6470;47.654;7.896;2022-10-26T14:28:31;22.90;99.90
12811;DHT22;6470;47.654;7.896;2022-10-26T14:31:11;23.70;99.90
12811;DHT22;6470;47.654;7.896;2022-10-26T14:33:37;22.40;99.90
12811;DHT22;6470;47.654;7.896;2022-10-26T14:36:03;23.20;99.90
12811;DHT22;6470;47.654;7.896;2022-10-26T14:38:32;23.40;99.90
12811;DHT22;6470;47.654;7.896;2022-10-26T14:40:59;22.60;99.90
12811;DHT22;6470;47.654;7.896;2022-10-26T14:43:25;22.50;99.90
12811;DHT22;6470;47.654;7.896;2022-10-26T14:45:52;22.40;99.90
12811;DHT22;6470;47.654;7.896;2022-10-26T14:48:30;22.50;99.90
12811;DHT22;6470;47.654;7.896;2022-10-26T14:51:24;23.00;99.90
12811;DHT22;6470;47.654;7.896;2022-10-26T14:53:51;22.60;99.90
12811;DHT22;6470;47.654;7.896;2022-10-26T14:59:17;22.20;99.90
12811;DHT22;6470;47.654;7.896;2022-10-26T15:04:29;21.40;99.90
12811;DHT22;6470;47.654;7.896;2022-10-26T15:07:18;21.60;99.90
12811;DHT22;6470;47.654;7.896;2022-10-26T15:09:49;21.30;99.90
12811;DHT22;6470;47.654;7.896;2022-10-26T15:12:22;22.40;99.90
12811;DHT22;6470;47.654;7.896;2022-10-26T15:14:50;21.00;99.90
12811;DHT22;6470;47.654;7.896;2022-10-26T15:17:21;21.50;99.90
12811;DHT22;6470;47.654;7.896;2022-10-26T15:19:49;22.10;99.90
12811;DHT22;6470;47.654;7.896;2022-10-26T15:22:25;21.20;99.90
12811;DHT22;6470;47.654;7.896;2022-10-26T15:24:56;20.90;99.90
12811;DHT22;6470;47.654;7.896;2022-10-26T15:27:23;21.10;99.90
12811;DHT22;6470;47.654;7.896;2022-10-26T15:30:15;20.60;99.90
12811;DHT22;6470;47.654;7.896;2022-10-26T15:35:22;19.80;99.90
12811;DHT22;6470;47.654;7.896;2022-10-26T15:37:50;19.60;99.90
12811;DHT22;6470;47.654;7.896;2022-10-26T15:42:44;18.80;99.90
12811;DHT22;6470;47.654;7.896;2022-10-26T15:45:21;19.70;99.90
12811;DHT22;6470;47.654;7.896;2022-10-26T15:47:48;19.40;99.90
12811;DHT22;6470;47.654;7.896;2022-10-26T15:50:18;19.80;99.90
12811;DHT22;6470;47.654;7.896;2022-10-26T15:55:11;19.20;99.90
12811;DHT22;6470;47.654;7.896;2022-10-26T15:57:37;18.40;99.90
12811;DHT22;6470;47.654;7.896;2022-10-26T16:00:05;18.00;99.90
12811;DHT22;6470;47.654;7.896;2022-10-26T16:02:35;18.50;99.90
12811;DHT22;6470;47.654;7.896;2022-10-26T16:05:02;18.40;99.90
12811;DHT22;6470;47.654;7.896;2022-10-26T16:07:27;17.60;99.90
12811;DHT22;6470;47.654;7.896;2022-10-26T16:09:53;17.90;99.90
12811;DHT22;6470;47.654;7.896;2022-10-26T16:12:19;17.70;99.90
12811;DHT22;6470;47.654;7.896;2022-10-26T16:14:45;17.70;99.90
12811;DHT22;6470;47.654;7.896;2022-10-26T16:17:10;14.40;99.90
12811;DHT22;6470;47.654;7.896;2022-10-26T16:19:36;16.90;99.90
12811;DHT22;6470;47.654;7.896;2022-10-26T16:22:02;17.40;99.90
12811;DHT22;6470;47.654;7.896;2022-10-26T16:24:28;17.20;99.90
12811;DHT22;6470;47.654;7.896;2022-10-26T16:26:55;16.80;99.90
12811;DHT22;6470;47.654;7.896;2022-10-26T16:29:20;17.20;99.90
12811;DHT22;6470;47.654;7.896;2022-10-26T16:31:47;16.60;99.90
12811;DHT22;6470;47.654;7.896;2022-10-26T16:34:13;16.70;99.90
12811;DHT22;6470;47.654;7.896;2022-10-26T16:36:39;16.20;99.90
12811;DHT22;6470;47.654;7.896;2022-10-26T16:39:05;16.60;99.90
12811;DHT22;6470;47.654;7.896;2022-10-26T16:43:58;17.50;99.90
12811;DHT22;6470;47.654;7.896;2022-10-26T16:46:24;16.80;99.90
12811;DHT22;6470;47.654;7.896;2022-10-26T16:48:50;13.90;99.90
12811;DHT22;6470;47.654;7.896;2022-10-26T16:53:42;16.60;99.90
12811;DHT22;6470;47.654;7.896;2022-10-26T16:56:13;16.00;99.90
12811;DHT22;6470;47.654;7.896;2022-10-26T16:58:39;15.60;99.90
12811;DHT22;6470;47.654;7.896;2022-10-26T17:01:06;15.60;99.90
12811;DHT22;6470;47.654;7.896;2022-10-26T17:03:33;17.00;99.90
12811;DHT22;6470;47.654;7.896;2022-10-26T17:06:03;15.50;99.90
12811;DHT22;6470;47.654;7.896;2022-10-26T17:08:30;16.00;99.90
12811;DHT22;6470;47.654;7.896;2022-10-26T17:11:09;15.20;99.90
12811;DHT22;6470;47.654;7.896;2022-10-26T17:13:36;15.10;99.90
12811;DHT22;6470;47.654;7.896;2022-10-26T17:16:09;16.40;99.90
12811;DHT22;6470;47.654;7.896;2022-10-26T17:18:35;15.30;99.90
12811;DHT22;6470;47.654;7.896;2022-10-26T17:21:01;15.70;99.90
12811;DHT22;6470;47.654;7.896;2022-10-26T17:23:26;16.10;99.90
12811;DHT22;6470;47.654;7.896;2022-10-26T17:25:52;15.80;99.90
12811;DHT22;6470;47.654;7.896;2022-10-26T17:28:18;15.50;99.90
12811;DHT22;6470;47.654;7.896;2022-10-26T17:30:44;15.90;99.90
12811;DHT22;6470;47.654;7.896;2022-10-26T17:33:10;15.90;99.90
12811;DHT22;6470;47.654;7.896;2022-10-26T17:35:36;15.50;99.90
12811;DHT22;6470;47.654;7.896;2022-10-26T17:38:02;15.50;99.90
12811;DHT22;6470;47.654;7.896;2022-10-26T17:40:29;15.40;99.90
12811;DHT22;6470;47.654;7.896;2022-10-26T17:42:55;15.70;99.90
12811;DHT22;6470;47.654;7.896;2022-10-26T17:45:20;15.60;99.90
12811;DHT22;6470;47.654;7.896;2022-10-26T17:47:46;15.40;99.90
12811;DHT22;6470;47.654;7.896;2022-10-26T17:50:12;15.90;99.90
12811;DHT22;6470;47.654;7.896;2022-10-26T17:52:38;15.70;99.90
12811;DHT22;6470;47.654;7.896;2022-10-26T17:55:03;15.60;99.90
12811;DHT22;6470;47.654;7.896;2022-10-26T17:57:31;14.10;99.90
12811;DHT22;6470;47.654;7.896;2022-10-26T17:59:56;15.80;99.90
12811;DHT22;6470;47.654;7.896;2022-10-26T18:02:22;16.20;99.90
12811;DHT22;6470;47.654;7.896;2022-10-26T18:04:49;16.00;99.90
12811;DHT22;6470;47.654;7.896;2022-10-26T18:07:15;14.10;99.90
12811;DHT22;6470;47.654;7.896;2022-10-26T18:09:41;15.80;99.90
12811;DHT22;6470;47.654;7.896;2022-10-26T18:12:07;15.90;99.90
12811;DHT22;6470;47.654;7.896;2022-10-26T18:14:32;15.80;99.90
12811;DHT22;6470;47.654;7.896;2022-10-26T18:16:58;11.60;99.90
12811;DHT22;6470;47.654;7.896;2022-10-26T18:19:24;15.80;99.90
12811;DHT22;6470;47.654;7.896;2022-10-26T18:21:50;15.10;99.90
12811;DHT22;6470;47.654;7.896;2022-10-26T18:24:16;15.50;99.90
12811;DHT22;6470;47.654;7.896;2022-10-26T18:26:47;15.90;99.90
12811;DHT22;6470;47.654;7.896;2022-10-26T18:29:14;15.30;99.90
12811;DHT22;6470;47.654;7.896;2022-10-26T18:31:43;13.60;99.90
12811;DHT22;6470;47.654;7.896;2022-10-26T18:34:10;15.70;99.90
12811;DHT22;6470;47.654;7.896;2022-10-26T18:36:36;13.50;99.90
12811;DHT22;6470;47.654;7.896;2022-10-26T18:39:04;15.40;99.90
12811;DHT22;6470;47.654;7.896;2022-10-26T18:41:29;15.10;99.90
12811;DHT22;6470;47.654;7.896;2022-10-26T18:43:56;15.50;99.90
12811;DHT22;6470;47.654;7.896;2022-10-26T18:46:31;13.70;99.90
12811;DHT22;6470;47.654;7.896;2022-10-26T18:48:59;15.40;99.90
12811;DHT22;6470;47.654;7.896;2022-10-26T18:51:33;15.70;99.90
12811;DHT22;6470;47.654;7.896;2022-10-26T18:53:59;11.00;99.90
12811;DHT22;6470;47.654;7.896;2022-10-26T18:56:26;13.90;99.90
12811;DHT22;6470;47.654;7.896;2022-10-26T18:58:55;15.60;99.90
12811;DHT22;6470;47.654;7.896;2022-10-26T19:01:44;15.70;99.90
12811;DHT22;6470;47.654;7.896;2022-10-26T19:04:13;16.10;99.90
12811;DHT22;6470;47.654;7.896;2022-10-26T19:06:46;15.40;99.90
12811;DHT22;6470;47.654;7.896;2022-10-26T19:09:30;15.60;99.90
12811;DHT22;6470;47.654;7.896;2022-10-26T19:12:01;12.80;99.90
12811;DHT22;6470;47.654;7.896;2022-10-26T19:14:27;15.00;99.90
12811;DHT22;6470;47.654;7.896;2022-10-26T19:16:56;15.60;99.90
12811;DHT22;6470;47.654;7.896;2022-10-26T19:19:25;10.10;99.90
12811;DHT22;6470;47.654;7.896;2022-10-26T19:21:51;10.00;99.90
12811;DHT22;6470;47.654;7.896;2022-10-26T19:24:21;14.70;99.90
12811;DHT22;6470;47.654;7.896;2022-10-26T19:26:51;15.10;99.90
12811;DHT22;6470;47.654;7.896;2022-10-26T19:29:18;15.30;99.90
12811;DHT22;6470;47.654;7.896;2022-10-26T19:31:46;15.60;99.90
12811;DHT22;6470;47.654;7.896;2022-10-26T19:34:14;12.60;99.90
12811;DHT22;6470;47.654;7.896;2022-10-26T19:36:54;12.50;99.90